createdAt,value
2019-03-03T00:00:51.621Z,3.23
2019-03-03T00:03:20.951Z,2.90
2019-03-03T00:05:50.523Z,3.20
2019-03-03T00:08:19.942Z,2.90
2019-03-03T00:10:49.384Z,3.50
2019-03-03T00:13:18.744Z,3.37
2019-03-03T00:15:48.141Z,3.90
2019-03-03T00:18:17.582Z,3.67
2019-03-03T00:20:47.004Z,3.67
2019-03-03T00:23:16.448Z,2.87
2019-03-03T00:25:45.827Z,3.27
2019-03-03T00:28:15.265Z,3.20
2019-03-03T00:30:44.683Z,3.57
2019-03-03T00:33:14.112Z,3.43
2019-03-03T00:35:43.477Z,4.03
2019-03-03T00:38:31.746Z,3.83
2019-03-03T00:41:23.196Z,3.77
2019-03-03T00:44:20.448Z,3.13
2019-03-03T00:47:14.828Z,3.33
2019-03-03T00:50:03.192Z,3.97
2019-03-03T00:52:54.546Z,3.37
2019-03-03T00:55:48.866Z,3.77
2019-03-03T00:58:35.614Z,3.97
2019-03-03T01:01:22.950Z,4.10
2019-03-03T01:04:00.714Z,3.93
2019-03-03T01:06:47.711Z,4.30
2019-03-03T01:09:49.629Z,3.60
2019-03-03T01:12:40.989Z,4.30
2019-03-03T01:15:29.077Z,4.77
2019-03-03T01:18:16.006Z,4.50
2019-03-03T01:20:55.305Z,4.87
2019-03-03T01:23:31.746Z,5.87
2019-03-03T01:26:01.121Z,4.50
2019-03-03T01:28:30.608Z,4.57
2019-03-03T01:31:00.006Z,4.07
2019-03-03T01:33:29.500Z,4.80
2019-03-03T01:35:58.887Z,5.37
2019-03-03T01:38:28.277Z,4.47
2019-03-03T01:40:57.613Z,4.83
2019-03-03T01:43:27.056Z,4.83
2019-03-03T01:45:56.429Z,4.17
2019-03-03T01:48:25.861Z,4.30
2019-03-03T01:50:55.286Z,4.33
2019-03-03T01:53:24.679Z,4.03
2019-03-03T01:55:54.088Z,3.87
2019-03-03T01:58:23.516Z,3.50
2019-03-03T02:00:52.865Z,3.50
2019-03-03T02:03:22.521Z,4.00
2019-03-03T02:05:51.905Z,3.80
2019-03-03T02:08:21.268Z,3.50
2019-03-03T02:10:50.740Z,3.47
2019-03-03T02:13:20.171Z,3.07
2019-03-03T02:15:49.629Z,3.03
2019-03-03T02:18:19.002Z,3.30
2019-03-03T02:20:48.485Z,3.60
2019-03-03T02:23:17.930Z,3.30
2019-03-03T02:25:47.267Z,2.60
2019-03-03T02:28:16.633Z,3.57
2019-03-03T02:30:46.107Z,4.00
2019-03-03T02:33:15.513Z,3.33
2019-03-03T02:35:44.968Z,2.47
2019-03-03T02:38:14.429Z,2.90
2019-03-03T02:40:43.782Z,2.70
2019-03-03T02:43:13.157Z,2.70
2019-03-03T02:45:42.519Z,3.00
2019-03-03T02:48:11.902Z,3.57
2019-03-03T02:50:41.384Z,2.90
2019-03-03T02:53:10.725Z,2.40
2019-03-03T02:55:40.186Z,3.20
2019-03-03T02:58:09.556Z,2.83
2019-03-03T03:00:44.529Z,2.80
2019-03-03T03:03:13.979Z,2.47
2019-03-03T03:06:00.614Z,2.50
2019-03-03T03:08:34.489Z,2.53
2019-03-03T03:11:21.476Z,2.97
2019-03-03T03:14:02.438Z,3.50
2019-03-03T03:16:47.075Z,2.77
2019-03-03T03:19:46.235Z,2.53
2019-03-03T03:22:28.693Z,3.20
2019-03-03T03:25:15.500Z,2.63
2019-03-03T03:27:52.919Z,2.80
2019-03-03T03:30:31.339Z,3.13
2019-03-03T03:33:19.758Z,2.67
2019-03-03T03:35:57.807Z,3.43
2019-03-03T03:38:52.028Z,2.77
2019-03-03T03:41:29.318Z,2.80
2019-03-03T03:44:23.869Z,3.07
2019-03-03T03:47:15.206Z,3.30
2019-03-03T03:49:59.497Z,2.70
2019-03-03T03:52:36.177Z,3.17
2019-03-03T03:55:24.024Z,3.77
2019-03-03T03:58:15.363Z,3.20
2019-03-03T04:01:02.359Z,2.77
2019-03-03T04:03:53.535Z,2.83
2019-03-03T04:06:42.843Z,2.57
2019-03-03T04:09:33.612Z,3.70
2019-03-03T04:12:15.061Z,3.30
2019-03-03T04:15:01.624Z,3.37
2019-03-03T04:17:45.914Z,3.50
2019-03-03T04:20:30.545Z,3.33
2019-03-03T04:23:17.636Z,3.73
2019-03-03T04:25:59.046Z,4.20
2019-03-03T04:28:50.609Z,3.10
2019-03-03T04:31:26.420Z,3.80
2019-03-03T04:34:22.515Z,3.80
2019-03-03T04:37:02.587Z,4.27
2019-03-03T04:39:48.769Z,3.30
2019-03-03T04:42:30.977Z,4.27
2019-03-03T04:45:10.103Z,3.60
2019-03-03T04:47:57.092Z,3.17
2019-03-03T04:50:48.165Z,4.13
2019-03-03T04:53:35.118Z,3.00
2019-03-03T04:56:35.359Z,3.80
2019-03-03T04:59:18.207Z,4.40
2019-03-03T05:01:56.417Z,4.10
2019-03-03T05:04:59.880Z,3.73
2019-03-03T05:08:06.077Z,3.03
2019-03-03T05:10:48.702Z,3.83
2019-03-03T05:13:38.661Z,4.17
2019-03-03T05:16:26.939Z,4.37
2019-03-03T05:19:21.002Z,4.30
2019-03-03T05:21:50.541Z,4.00
2019-03-03T05:24:19.866Z,4.10
2019-03-03T05:26:49.233Z,4.37
2019-03-03T05:29:18.606Z,4.20
2019-03-03T05:31:48.084Z,3.77
2019-03-03T05:34:17.434Z,4.27
2019-03-03T05:36:46.811Z,4.67
2019-03-03T05:39:16.156Z,4.30
2019-03-03T05:41:45.568Z,4.47
2019-03-03T05:44:14.913Z,4.67
2019-03-03T05:46:44.284Z,4.13
2019-03-03T05:49:13.643Z,4.40
2019-03-03T05:51:43.049Z,4.83
2019-03-03T05:54:12.437Z,4.83
2019-03-03T05:56:41.781Z,5.30
2019-03-03T05:59:11.141Z,5.30
2019-03-03T06:01:40.602Z,4.90
2019-03-03T06:04:09.976Z,5.20
2019-03-03T06:06:39.369Z,5.70
2019-03-03T06:09:08.738Z,5.73
2019-03-03T06:11:38.131Z,6.20
2019-03-03T06:14:07.567Z,6.93
2019-03-03T06:16:36.972Z,7.07
2019-03-03T06:19:06.434Z,8.00
2019-03-03T06:21:35.884Z,7.77
2019-03-03T06:24:05.272Z,7.57
2019-03-03T06:26:34.642Z,7.83
2019-03-03T06:29:04.026Z,7.50
2019-03-03T06:31:33.386Z,6.97
2019-03-03T06:34:02.763Z,7.77
2019-03-03T06:36:32.169Z,7.40
2019-03-03T06:39:01.533Z,7.80
2019-03-03T06:41:30.914Z,8.40
2019-03-03T06:44:00.351Z,7.43
2019-03-03T06:46:29.723Z,7.00
2019-03-03T06:48:59.255Z,6.80
2019-03-03T06:51:28.683Z,8.40
2019-03-03T06:53:58.249Z,7.67
2019-03-03T06:56:27.670Z,7.60
2019-03-03T06:58:57.076Z,8.67
2019-03-03T07:01:26.488Z,8.00
2019-03-03T07:03:55.926Z,8.00
2019-03-03T07:06:25.354Z,7.63
2019-03-03T07:08:54.757Z,8.07
2019-03-03T07:11:24.167Z,8.87
2019-03-03T07:13:53.533Z,8.80
2019-03-03T07:16:22.891Z,8.70
2019-03-03T07:18:52.242Z,8.50
2019-03-03T07:21:21.629Z,7.57
2019-03-03T07:23:51.056Z,7.50
2019-03-03T07:26:20.414Z,8.37
2019-03-03T07:28:49.801Z,7.00
2019-03-03T07:31:19.200Z,7.63
2019-03-03T07:33:52.744Z,7.23
2019-03-03T07:36:22.111Z,6.97
2019-03-03T07:38:51.591Z,7.57
2019-03-03T07:41:21.019Z,6.63
2019-03-03T07:43:50.671Z,6.50
2019-03-03T07:46:20.185Z,6.13
2019-03-03T07:48:49.562Z,6.80
2019-03-03T07:51:19.081Z,6.67
2019-03-03T07:53:48.701Z,6.40
2019-03-03T07:56:18.229Z,6.93
2019-03-03T07:58:47.844Z,7.53
2019-03-03T08:01:17.426Z,7.78
2019-03-03T08:03:46.938Z,8.13
2019-03-03T08:06:16.455Z,7.60
2019-03-03T08:08:45.874Z,7.70
2019-03-03T08:11:15.338Z,6.60
2019-03-03T08:13:44.777Z,6.03
2019-03-03T08:16:14.447Z,7.20
2019-03-03T08:18:43.918Z,6.70
2019-03-03T08:21:13.435Z,6.37
2019-03-03T08:23:42.959Z,6.13
2019-03-03T08:26:12.546Z,6.17
2019-03-03T08:28:41.973Z,6.00
2019-03-03T08:31:11.449Z,5.87
2019-03-03T08:33:41.020Z,5.47
2019-03-03T08:36:10.496Z,6.07
2019-03-03T08:38:40.094Z,6.20
2019-03-03T08:41:09.675Z,5.87
2019-03-03T08:43:49.998Z,5.53
2019-03-03T08:46:30.909Z,6.53
2019-03-03T08:49:20.662Z,5.67
2019-03-03T08:52:04.714Z,6.13
2019-03-03T08:55:00.153Z,6.57
2019-03-03T08:57:38.893Z,6.70
2019-03-03T09:00:28.504Z,6.40
2019-03-03T09:03:08.286Z,6.20
2019-03-03T09:06:14.473Z,6.83
2019-03-03T09:08:52.276Z,6.67
2019-03-03T09:11:55.474Z,6.53
2019-03-03T09:14:42.558Z,5.83
2019-03-03T09:17:29.354Z,7.03
2019-03-03T09:20:26.710Z,6.83
2019-03-03T09:23:17.457Z,7.60
2019-03-03T09:25:56.798Z,5.77
2019-03-03T09:28:51.325Z,7.63
2019-03-03T09:31:45.863Z,6.50
2019-03-03T09:34:44.568Z,5.67
2019-03-03T09:37:38.207Z,6.30
2019-03-03T09:40:30.255Z,5.20
2019-03-03T09:43:18.635Z,6.30
2019-03-03T09:46:21.908Z,5.77
2019-03-03T09:49:08.946Z,5.57
2019-03-03T09:51:57.232Z,5.17
2019-03-03T09:54:35.029Z,4.27
2019-03-03T09:57:23.634Z,4.37
2019-03-03T10:00:20.821Z,4.00
2019-03-03T10:03:07.963Z,4.47
2019-03-03T10:06:08.277Z,4.20
2019-03-03T10:08:55.289Z,4.23
2019-03-03T10:11:39.942Z,3.63
2019-03-03T10:14:26.820Z,4.53
2019-03-03T10:17:04.009Z,3.83
2019-03-03T10:19:52.373Z,3.37
2019-03-03T10:22:52.902Z,3.50
2019-03-03T10:25:44.015Z,3.67
2019-03-03T10:28:47.586Z,2.97
2019-03-03T10:31:29.336Z,3.47
2019-03-03T10:34:15.662Z,2.90
2019-03-03T10:37:04.013Z,3.70
2019-03-03T10:39:47.422Z,3.17
2019-03-03T10:42:38.524Z,4.00
2019-03-03T10:45:29.987Z,3.70
2019-03-03T10:48:11.786Z,3.13
2019-03-03T10:50:52.765Z,3.70
2019-03-03T10:53:38.015Z,3.77
2019-03-03T10:56:29.411Z,3.50
2019-03-03T10:59:23.832Z,3.93
2019-03-03T11:02:10.588Z,4.37
2019-03-03T11:05:01.940Z,3.10
2019-03-03T11:07:57.493Z,3.87
2019-03-03T11:10:36.753Z,3.50
2019-03-03T11:13:31.279Z,3.87
2019-03-03T11:16:18.411Z,3.97
2019-03-03T11:19:05.148Z,4.63
2019-03-03T11:22:02.382Z,4.00
2019-03-03T11:24:49.361Z,4.83
2019-03-03T11:27:46.700Z,3.90
2019-03-03T11:30:27.721Z,4.20
2019-03-03T11:33:14.809Z,3.87
2019-03-03T11:36:02.500Z,3.50
2019-03-03T11:38:59.790Z,4.50
2019-03-03T11:41:51.643Z,3.73
2019-03-03T11:44:45.930Z,4.07
2019-03-03T11:47:46.240Z,3.93
2019-03-03T11:50:31.008Z,3.83
2019-03-03T11:53:19.401Z,4.00
2019-03-03T11:56:25.750Z,4.27
2019-03-03T11:59:20.261Z,4.47
2019-03-03T12:02:06.946Z,4.27
2019-03-03T12:04:58.064Z,4.27
2019-03-03T12:07:55.179Z,3.97
2019-03-03T12:10:52.637Z,3.53
2019-03-03T12:13:46.954Z,4.07
2019-03-03T12:16:38.309Z,4.13
2019-03-03T12:19:23.182Z,4.53
2019-03-03T12:22:11.468Z,4.10
2019-03-03T12:25:08.936Z,4.27
2019-03-03T12:27:50.596Z,4.30
2019-03-03T12:30:47.792Z,4.47
2019-03-03T12:33:25.743Z,4.00
2019-03-03T12:36:11.868Z,3.97
2019-03-03T12:39:03.194Z,3.63
2019-03-03T12:41:51.498Z,3.90
2019-03-03T12:44:35.698Z,3.67
2019-03-03T12:47:15.146Z,4.00
2019-03-03T12:49:54.982Z,3.63
2019-03-03T12:52:53.046Z,3.63
2019-03-03T12:55:41.721Z,4.10
2019-03-03T12:58:20.750Z,3.67
2019-03-03T13:01:12.159Z,3.53
2019-03-03T13:03:53.464Z,4.60
2019-03-03T13:06:57.295Z,4.27
2019-03-03T13:09:39.063Z,4.67
2019-03-03T13:12:27.392Z,3.30
2019-03-03T13:15:05.173Z,3.67
2019-03-03T13:17:48.479Z,4.13
2019-03-03T13:20:32.336Z,3.60
2019-03-03T13:23:29.892Z,4.17
2019-03-03T13:26:27.600Z,3.70
2019-03-03T13:29:14.488Z,4.60
2019-03-03T13:32:05.721Z,3.93
2019-03-03T13:34:52.430Z,4.07
2019-03-03T13:37:43.804Z,4.07
2019-03-03T13:40:41.114Z,3.87
2019-03-03T13:43:11.923Z,4.03
2019-03-03T13:45:42.239Z,4.43
2019-03-03T13:48:11.669Z,3.70
2019-03-03T13:50:41.140Z,4.27
2019-03-03T13:53:10.892Z,3.90
2019-03-03T13:55:41.078Z,3.50
2019-03-03T13:58:10.487Z,3.67
2019-03-03T14:00:40.080Z,4.07
2019-03-03T14:03:09.491Z,4.57
2019-03-03T14:05:38.894Z,4.13
2019-03-03T14:08:08.461Z,3.80
2019-03-03T14:10:37.964Z,3.83
2019-03-03T14:13:07.643Z,3.90
2019-03-03T14:15:37.312Z,3.77
2019-03-03T14:18:06.952Z,3.43
2019-03-03T14:20:36.512Z,5.90
2019-03-03T14:23:06.442Z,3.30
2019-03-03T14:25:37.587Z,3.60
2019-03-03T14:28:07.584Z,3.20
2019-03-03T14:30:37.180Z,4.00
2019-03-03T14:33:06.688Z,3.30
2019-03-03T14:35:36.230Z,2.90
2019-03-03T14:38:05.834Z,3.07
2019-03-03T14:40:35.474Z,3.40
2019-03-03T14:43:05.233Z,3.77
2019-03-03T14:45:34.949Z,3.30
2019-03-03T14:48:04.492Z,3.40
2019-03-03T14:50:33.922Z,3.27
2019-03-03T14:53:03.380Z,3.43
2019-03-03T14:55:32.854Z,3.50
2019-03-03T14:58:03.143Z,3.43
2019-03-03T15:00:34.005Z,3.57
2019-03-03T15:03:06.014Z,3.13
2019-03-03T15:05:35.449Z,3.17
2019-03-03T15:08:05.250Z,3.10
2019-03-03T15:10:34.690Z,3.03
2019-03-03T15:13:04.207Z,2.83
2019-03-03T15:15:34.249Z,3.37
2019-03-03T15:18:03.771Z,4.10
2019-03-03T15:20:33.444Z,3.53
2019-03-03T15:23:03.091Z,4.40
2019-03-03T15:25:32.590Z,4.83
2019-03-03T15:28:02.088Z,5.00
2019-03-03T15:30:31.562Z,5.40
2019-03-03T15:33:01.128Z,5.50
2019-03-03T15:35:30.521Z,6.00
2019-03-03T15:37:59.940Z,6.60
2019-03-03T15:40:30.942Z,7.43
2019-03-03T15:43:01.376Z,7.57
2019-03-03T15:45:31.190Z,7.57
2019-03-03T15:48:00.837Z,7.53
2019-03-03T15:50:30.469Z,8.70
2019-03-03T15:53:00.062Z,7.80
2019-03-03T15:55:30.056Z,8.60
2019-03-03T15:57:59.865Z,8.93
2019-03-03T16:00:30.202Z,9.67
2019-03-03T16:02:59.728Z,10.83
2019-03-03T16:05:29.262Z,9.67
2019-03-03T16:07:58.784Z,8.87
2019-03-03T16:10:28.596Z,8.20
2019-03-03T16:12:58.135Z,8.43
2019-03-03T16:15:27.770Z,8.00
2019-03-03T16:17:57.319Z,9.07
2019-03-03T16:20:27.079Z,7.53
2019-03-03T16:22:57.189Z,8.23
2019-03-03T16:25:28.270Z,8.30
2019-03-03T16:27:58.503Z,8.83
2019-03-03T16:30:31.247Z,8.40
2019-03-03T16:33:00.984Z,9.10
2019-03-03T16:35:31.829Z,9.27
2019-03-03T16:38:02.605Z,10.50
2019-03-03T16:40:39.283Z,10.50
2019-03-03T16:43:25.460Z,10.07
2019-03-03T16:45:45.297Z,9.20
2019-03-03T16:48:15.126Z,9.60
2019-03-03T16:50:45.527Z,10.47
2019-03-03T16:53:15.579Z,9.20
2019-03-03T16:55:45.496Z,9.50
2019-03-03T16:58:15.339Z,9.20
2019-03-03T17:00:45.448Z,9.27
2019-03-03T17:03:15.058Z,9.73
2019-03-03T17:05:45.217Z,10.30
2019-03-03T17:08:15.187Z,9.00
2019-03-03T17:10:44.774Z,8.10
2019-03-03T17:13:15.523Z,7.90
2019-03-03T17:15:45.541Z,8.17
2019-03-03T17:18:14.962Z,8.43
2019-03-03T17:20:44.491Z,6.90
2019-03-03T17:23:14.047Z,6.50
2019-03-03T17:25:44.035Z,6.70
2019-03-03T17:28:14.097Z,6.03
2019-03-03T17:30:43.598Z,6.33
2019-03-03T17:33:13.396Z,6.77
2019-03-03T17:35:43.945Z,6.67
2019-03-03T17:38:14.587Z,8.00
2019-03-03T17:40:44.488Z,8.85
2019-03-03T17:43:14.179Z,10.50
2019-03-03T17:45:43.675Z,7.70
2019-03-03T17:48:13.663Z,6.17
2019-03-03T17:50:43.794Z,5.87
2019-03-03T17:53:13.605Z,5.70
2019-03-03T17:55:44.272Z,5.37
2019-03-03T17:58:13.972Z,5.60
2019-03-03T18:00:44.804Z,5.20
2019-03-03T18:03:15.181Z,5.00
2019-03-03T18:05:44.987Z,4.70
2019-03-03T18:08:15.109Z,5.00
2019-03-03T18:10:45.523Z,4.90
2019-03-03T18:13:15.730Z,5.07
2019-03-03T18:15:45.476Z,5.77
2019-03-03T18:18:15.260Z,6.07
2019-03-03T18:20:45.024Z,5.17
2019-03-03T18:23:14.569Z,4.93
2019-03-03T18:25:44.098Z,5.83
2019-03-03T18:28:13.655Z,4.97
2019-03-03T18:30:43.234Z,5.50
2019-03-03T18:33:13.047Z,4.93
2019-03-03T18:35:42.585Z,5.33
2019-03-03T18:38:12.442Z,5.17
2019-03-03T18:40:42.069Z,5.40
2019-03-03T18:43:12.045Z,5.00
2019-03-03T18:45:41.873Z,5.80
2019-03-03T18:48:11.534Z,5.77
2019-03-03T18:50:41.056Z,5.63
2019-03-03T18:53:55.060Z,5.43
2019-03-03T18:56:57.436Z,5.97
2019-03-03T18:59:56.602Z,6.00
2019-03-03T19:02:26.094Z,5.53
2019-03-03T19:04:55.590Z,5.53
2019-03-03T19:07:25.279Z,5.93
2019-03-03T19:09:55.384Z,5.43
2019-03-03T19:12:57.590Z,5.17
2019-03-03T19:15:57.227Z,5.40
2019-03-03T19:18:26.744Z,5.77
2019-03-03T19:20:56.284Z,5.57
2019-03-03T19:23:25.716Z,5.13
2019-03-03T19:25:55.218Z,5.07
2019-03-03T19:28:25.354Z,4.87
2019-03-03T19:30:54.964Z,5.10
2019-03-03T19:33:28.940Z,5.47
2019-03-03T19:35:58.402Z,4.90
2019-03-03T19:38:29.869Z,4.67
2019-03-03T19:40:59.059Z,5.43
2019-03-03T19:43:29.524Z,4.60
2019-03-03T19:46:01.000Z,4.63
2019-03-03T19:48:30.704Z,4.33
2019-03-03T19:51:00.480Z,4.93
2019-03-03T19:53:29.901Z,4.20
2019-03-03T19:55:59.430Z,4.50
2019-03-03T19:58:29.615Z,5.73
2019-03-03T20:00:59.382Z,4.80
2019-03-03T20:03:30.345Z,4.37
2019-03-03T20:05:59.863Z,4.33
2019-03-03T20:08:29.314Z,4.67
2019-03-03T20:11:54.540Z,4.10
2019-03-03T20:14:56.936Z,3.97
2019-03-03T20:17:56.126Z,4.20
2019-03-03T20:20:25.703Z,4.43
2019-03-03T20:22:55.099Z,4.50
2019-03-03T20:25:25.680Z,4.40
2019-03-03T20:27:58.020Z,3.87
2019-03-03T20:30:57.463Z,4.33
2019-03-03T20:33:27.010Z,4.93
2019-03-03T20:35:56.660Z,3.80
2019-03-03T20:38:55.944Z,3.63
2019-03-03T20:41:25.391Z,4.57
2019-03-03T20:43:57.560Z,4.93
2019-03-03T20:46:53.864Z,4.53
2019-03-03T20:49:23.306Z,4.40
2019-03-03T20:51:52.898Z,4.60
2019-03-03T20:54:22.355Z,4.60
2019-03-03T20:56:57.836Z,4.60
2019-03-03T20:59:57.134Z,4.17
2019-03-03T21:02:26.559Z,4.53
2019-03-03T21:04:59.033Z,4.20
2019-03-03T21:07:28.433Z,4.30
2019-03-03T21:09:57.821Z,4.13
2019-03-03T21:12:56.933Z,4.03
2019-03-03T21:15:26.289Z,4.43
2019-03-03T21:17:58.804Z,3.97
2019-03-03T21:23:15.358Z,4.70
2019-03-03T21:25:57.082Z,4.60
2019-03-03T21:28:56.108Z,4.40
2019-03-03T21:31:58.177Z,4.77
2019-03-03T21:34:57.461Z,5.07
2019-03-03T21:37:58.802Z,5.20
2019-03-03T21:40:54.554Z,4.87
2019-03-03T21:43:23.940Z,5.20
2019-03-03T21:45:59.493Z,5.50
2019-03-03T21:48:55.667Z,5.17
2019-03-03T21:51:58.035Z,6.03
2019-03-03T21:54:27.440Z,5.20
2019-03-03T21:56:56.832Z,5.53
2019-03-03T21:59:26.914Z,4.87
2019-03-03T22:01:56.366Z,4.70
2019-03-03T22:04:26.162Z,5.13
2019-03-03T22:06:56.007Z,4.33
2019-03-03T22:09:25.674Z,4.77
2019-03-03T22:11:55.347Z,5.00
2019-03-03T22:14:25.135Z,4.40
2019-03-03T22:16:54.785Z,4.07
2019-03-03T22:19:24.352Z,4.47
2019-03-03T22:21:54.072Z,3.90
2019-03-03T22:24:23.659Z,4.03
2019-03-03T22:26:53.201Z,3.93
2019-03-03T22:29:25.733Z,3.93
2019-03-03T22:31:55.134Z,3.80
2019-03-03T22:34:24.623Z,3.90
2019-03-03T22:36:54.012Z,4.70
2019-03-03T22:39:23.367Z,3.40
2019-03-03T22:41:52.724Z,4.07
2019-03-03T22:44:22.098Z,4.17
2019-03-03T22:46:51.523Z,4.13
2019-03-03T22:49:20.955Z,3.40
2019-03-03T22:51:50.524Z,3.60
2019-03-03T22:54:20.003Z,4.20
2019-03-03T22:56:49.522Z,3.53
2019-03-03T22:59:18.861Z,4.00
2019-03-03T23:01:48.255Z,3.97
2019-03-03T23:04:38.041Z,3.50
2019-03-03T23:07:15.897Z,3.87
2019-03-03T23:10:41.406Z,4.03
2019-03-03T23:13:19.196Z,4.00
2019-03-03T23:16:19.252Z,3.93
2019-03-03T23:19:14.367Z,3.23
2019-03-03T23:22:21.783Z,3.77
2019-03-03T23:25:18.963Z,3.30
2019-03-03T23:27:48.386Z,3.47
2019-03-03T23:30:18.150Z,3.43
2019-03-03T23:32:47.496Z,3.20
2019-03-03T23:35:16.905Z,2.77
2019-03-03T23:37:46.280Z,2.97
2019-03-03T23:40:15.611Z,2.70
2019-03-03T23:42:44.973Z,3.00
2019-03-03T23:45:14.306Z,3.33
2019-03-03T23:47:43.726Z,3.23
2019-03-03T23:50:13.072Z,3.67
2019-03-03T23:52:42.444Z,4.07
2019-03-03T23:55:13.725Z,2.90
2019-03-03T23:57:43.071Z,3.67
